Time;durP1;ratioP1;P1;durP2;ratioP2;P2;SDS_P1;SDS_P2;PMS_P1;PMS_P2;Temp;Humidity;BMP_temperature;BMP_pressure;BME280_temperature;BME280_humidity;BME280_pressure;Samples;Min_cycle;Max_cycle;Signal;HPM_P1;HPM_P2
2021/04/25 00:00:39;;;;;;;3.80;2.80;;;7.10;99.90;;;;;;5033844;28;20244;-67
2021/04/25 00:03:06;;;;;;;5.90;3.10;;;7.00;99.90;;;;;;5036588;28;20435;-66
2021/04/25 00:05:35;;;;;;;5.10;2.83;;;7.00;99.90;;;;;;5034195;28;20202;-66
2021/04/25 00:08:06;;;;;;;5.50;3.20;;;7.00;99.90;;;;;;5039578;28;20296;-66
2021/04/25 00:10:34;;;;;;;5.53;3.17;;;7.00;99.90;;;;;;5041242;28;20235;-66
2021/04/25 00:13:02;;;;;;;4.47;3.13;;;6.90;99.90;;;;;;5040463;28;20343;-66
2021/04/25 00:15:31;;;;;;;4.03;3.00;;;6.90;99.90;;;;;;5040967;28;20190;-66
2021/04/25 00:17:59;;;;;;;2.87;2.60;;;6.80;99.90;;;;;;5041474;28;20377;-67
2021/04/25 00:20:26;;;;;;;3.53;3.07;;;6.80;99.90;;;;;;5054075;28;20206;-66
2021/04/25 00:22:54;;;;;;;6.23;3.23;;;6.80;99.90;;;;;;5044374;28;20449;-66
2021/04/25 00:25:21;;;;;;;3.93;3.00;;;6.80;99.90;;;;;;5042420;28;20181;-66
2021/04/25 00:27:49;;;;;;;3.30;3.10;;;6.80;99.90;;;;;;5038794;28;20178;-66
2021/04/25 00:30:21;;;;;;;3.80;3.00;;;6.70;99.90;;;;;;5039462;28;20399;-66
2021/04/25 00:32:48;;;;;;;4.70;3.20;;;6.70;99.90;;;;;;5042763;28;20244;-67
2021/04/25 00:35:18;;;;;;;3.40;3.10;;;6.60;99.90;;;;;;5041906;28;20189;-66
2021/04/25 00:37:45;;;;;;;7.77;3.50;;;6.60;99.90;;;;;;5033858;28;20341;-67
2021/04/25 00:40:15;;;;;;;4.37;3.47;;;6.60;99.90;;;;;;5043816;28;20188;-66
2021/04/25 00:42:43;;;;;;;6.90;3.57;;;6.60;99.90;;;;;;5038241;28;20434;-66
2021/04/25 00:45:13;;;;;;;3.70;3.40;;;6.50;99.90;;;;;;5042595;28;20399;-66
2021/04/25 00:47:42;;;;;;;3.87;3.67;;;6.40;99.90;;;;;;5042114;28;20236;-66
2021/04/25 00:50:11;;;;;;;8.60;3.97;;;6.40;99.90;;;;;;5030848;28;20189;-67
2021/04/25 00:52:42;;;;;;;6.53;3.10;;;6.40;99.90;;;;;;5042213;28;20188;-66
2021/04/25 00:55:11;;;;;;;6.10;3.60;;;6.30;99.90;;;;;;5043420;28;20452;-67
2021/04/25 00:57:39;;;;;;;6.57;3.90;;;6.20;99.90;;;;;;5043301;28;20251;-66
2021/04/25 01:00:09;;;;;;;6.00;4.17;;;6.20;99.90;;;;;;5038227;28;20303;-66
2021/04/25 01:02:39;;;;;;;5.70;4.10;;;6.10;99.90;;;;;;5039712;28;20217;-66
2021/04/25 01:05:11;;;;;;;7.80;4.00;;;6.10;99.90;;;;;;5028484;28;20274;-66
2021/04/25 01:07:41;;;;;;;5.20;4.00;;;6.10;99.90;;;;;;5048146;28;20186;-66
2021/04/25 01:10:09;;;;;;;7.80;4.53;;;6.10;99.90;;;;;;5042061;28;20208;-67
2021/04/25 01:12:37;;;;;;;6.77;4.37;;;6.00;99.90;;;;;;5040739;28;20181;-66
2021/04/25 01:15:06;;;;;;;8.90;4.33;;;6.00;99.90;;;;;;5044977;28;20186;-66
2021/04/25 01:17:34;;;;;;;9.97;5.00;;;5.90;99.90;;;;;;5059036;28;20229;-66
2021/04/25 01:20:02;;;;;;;6.60;4.43;;;5.90;99.90;;;;;;5050159;28;20232;-66
2021/04/25 01:22:31;;;;;;;7.10;5.10;;;5.90;99.90;;;;;;5041898;28;20213;-66
2021/04/25 01:24:58;;;;;;;6.70;4.57;;;5.80;99.90;;;;;;5041397;28;20461;-66
2021/04/25 01:27:25;;;;;;;7.30;4.50;;;5.80;99.90;;;;;;5037165;28;20287;-66
2021/04/25 01:29:53;;;;;;;9.43;5.07;;;5.70;99.90;;;;;;5044981;28;20192;-66
2021/04/25 01:32:20;;;;;;;10.40;5.30;;;5.70;99.90;;;;;;5042548;28;20201;-66
2021/04/25 01:34:47;;;;;;;6.00;5.20;;;5.70;99.90;;;;;;5036709;28;20196;-66
2021/04/25 01:37:15;;;;;;;10.43;4.80;;;5.60;99.90;;;;;;5041905;28;20223;-66
2021/04/25 01:39:43;;;;;;;6.90;4.97;;;5.60;99.90;;;;;;5041522;28;20209;-67
2021/04/25 01:42:10;;;;;;;8.33;5.30;;;5.50;99.90;;;;;;5041734;28;20209;-67
2021/04/25 01:44:38;;;;;;;8.53;4.77;;;5.50;99.90;;;;;;5039501;28;20220;-66
2021/04/25 01:47:05;;;;;;;10.33;5.57;;;5.50;99.90;;;;;;5042112;28;20193;-66
2021/04/25 01:49:33;;;;;;;10.47;5.00;;;5.50;99.90;;;;;;5043476;28;20201;-67
2021/04/25 01:52:01;;;;;;;10.10;5.10;;;5.40;99.90;;;;;;5035793;28;20221;-66
2021/04/25 01:54:29;;;;;;;9.77;5.33;;;5.40;99.90;;;;;;5041677;28;20217;-66
2021/04/25 01:56:57;;;;;;;15.47;6.10;;;5.40;99.90;;;;;;5032501;28;20453;-66
2021/04/25 01:59:24;;;;;;;14.43;5.87;;;5.40;99.90;;;;;;5043076;28;20185;-66
2021/04/25 02:01:55;;;;;;;9.53;5.23;;;5.30;99.90;;;;;;5032358;28;20206;-66
2021/04/25 02:04:23;;;;;;;12.13;5.83;;;5.30;99.90;;;;;;5049571;28;20252;-66
2021/04/25 02:07:10;;;;;;;10.27;6.30;;;5.30;99.90;;;;;;5042262;28;20179;-66
2021/04/25 02:09:38;;;;;;;7.70;5.50;;;5.30;99.90;;;;;;5038538;28;20212;-66
2021/04/25 02:12:07;;;;;;;9.80;6.47;;;5.20;99.90;;;;;;5041911;28;20189;-66
2021/04/25 02:14:34;;;;;;;11.50;6.80;;;5.20;99.90;;;;;;5041273;28;20442;-66
2021/04/25 02:17:02;;;;;;;12.97;5.90;;;5.20;99.90;;;;;;5038964;28;20229;-66
2021/04/25 02:19:30;;;;;;;9.27;5.57;;;5.20;99.90;;;;;;5036414;28;20187;-66
2021/04/25 02:21:58;;;;;;;14.13;6.43;;;5.10;99.90;;;;;;5038258;28;20229;-66
2021/04/25 02:24:25;;;;;;;10.17;6.03;;;5.10;99.90;;;;;;5041062;28;20256;-66
2021/04/25 02:26:53;;;;;;;12.13;6.50;;;5.00;99.90;;;;;;5043807;28;20173;-66
2021/04/25 02:29:21;;;;;;;8.63;6.17;;;5.00;99.90;;;;;;5038817;28;20205;-66
2021/04/25 02:31:48;;;;;;;9.87;6.37;;;4.90;99.90;;;;;;5036601;28;20189;-66
2021/04/25 02:34:16;;;;;;;13.53;6.60;;;4.90;99.90;;;;;;5038712;28;20177;-66
2021/04/25 02:36:44;;;;;;;12.53;6.23;;;4.90;99.90;;;;;;5042828;28;20205;-66
2021/04/25 02:39:11;;;;;;;14.53;6.43;;;4.90;99.90;;;;;;5038238;28;20326;-66
2021/04/25 02:41:39;;;;;;;10.77;6.30;;;4.80;99.90;;;;;;5041782;28;20197;-66
2021/04/25 02:44:06;;;;;;;14.37;6.93;;;4.70;99.90;;;;;;5039157;28;20174;-66
2021/04/25 02:46:34;;;;;;;11.23;5.70;;;4.70;99.90;;;;;;5024828;28;20182;-66
2021/04/25 02:49:02;;;;;;;15.17;6.53;;;4.70;99.90;;;;;;5034860;28;20189;-66
2021/04/25 02:51:29;;;;;;;10.27;6.50;;;4.60;99.90;;;;;;5038914;28;20357;-66
2021/04/25 02:53:57;;;;;;;12.83;6.67;;;4.60;99.90;;;;;;5040284;28;20444;-66
2021/04/25 02:56:24;;;;;;;12.70;6.10;;;4.60;99.90;;;;;;5041570;28;20219;-66
2021/04/25 02:58:52;;;;;;;12.90;6.80;;;4.50;99.90;;;;;;5041222;28;20181;-66
2021/04/25 03:01:19;;;;;;;18.67;6.77;;;4.50;99.90;;;;;;5036935;28;20205;-66
2021/04/25 03:04:13;;;;;;;13.27;6.07;;;4.40;99.90;;;;;;5031987;28;20442;-66
2021/04/25 03:06:40;;;;;;;9.87;6.30;;;4.40;99.90;;;;;;5038562;28;20190;-66
2021/04/25 03:09:10;;;;;;;16.93;6.53;;;4.40;99.90;;;;;;5042261;28;20331;-65
2021/04/25 03:11:38;;;;;;;12.67;6.20;;;4.30;99.90;;;;;;5041205;28;20196;-66
2021/04/25 03:14:05;;;;;;;12.43;6.50;;;4.30;99.90;;;;;;5041112;28;20247;-66
2021/04/25 03:16:33;;;;;;;13.10;6.93;;;4.20;99.90;;;;;;5040037;28;20225;-65
2021/04/25 03:19:00;;;;;;;11.83;6.20;;;4.20;99.90;;;;;;5037430;28;20185;-66
2021/04/25 03:21:29;;;;;;;12.80;6.50;;;4.20;99.90;;;;;;5037226;28;20200;-66
2021/04/25 03:23:57;;;;;;;11.13;6.80;;;4.30;99.90;;;;;;5037788;28;20198;-66
2021/04/25 03:26:24;;;;;;;9.90;6.53;;;4.30;99.90;;;;;;5033745;28;20303;-66
2021/04/25 03:28:51;;;;;;;16.03;7.43;;;4.30;99.90;;;;;;5037888;28;20350;-66
2021/04/25 03:31:19;;;;;;;16.27;6.70;;;4.30;99.90;;;;;;5037108;28;20185;-66
2021/04/25 03:33:47;;;;;;;15.67;6.23;;;4.30;99.90;;;;;;5037719;28;20194;-66
2021/04/25 03:36:15;;;;;;;13.43;7.10;;;4.30;99.90;;;;;;5037633;28;20201;-66
2021/04/25 03:38:43;;;;;;;13.80;6.90;;;4.30;99.90;;;;;;5036542;28;20240;-66
2021/04/25 03:41:10;;;;;;;11.97;6.73;;;4.30;99.90;;;;;;5039666;28;20289;-66
2021/04/25 03:43:38;;;;;;;10.40;7.00;;;4.30;99.90;;;;;;5029979;28;20378;-66
2021/04/25 03:46:05;;;;;;;14.70;6.57;;;4.30;99.90;;;;;;5039752;28;20204;-66
2021/04/25 03:48:32;;;;;;;11.80;7.30;;;4.30;99.90;;;;;;5033576;28;20181;-65
2021/04/25 03:51:00;;;;;;;10.37;6.37;;;4.30;99.90;;;;;;5035423;28;20185;-65
2021/04/25 03:53:27;;;;;;;12.10;7.10;;;4.20;99.90;;;;;;5037826;28;20201;-66
2021/04/25 03:55:56;;;;;;;15.43;7.13;;;4.20;99.90;;;;;;5045087;28;20204;-66
2021/04/25 03:58:23;;;;;;;13.57;6.97;;;4.20;99.90;;;;;;5038633;28;20190;-66
2021/04/25 04:00:51;;;;;;;11.13;6.20;;;4.20;99.90;;;;;;5038105;28;20181;-66
2021/04/25 04:03:23;;;;;;;15.13;6.83;;;4.20;99.90;;;;;;5035834;28;20229;-66
2021/04/25 04:05:50;;;;;;;17.63;7.23;;;4.20;99.90;;;;;;5043913;28;20359;-66
2021/04/25 04:08:18;;;;;;;11.70;6.33;;;4.20;99.90;;;;;;5034692;28;20189;-66
2021/04/25 04:10:46;;;;;;;13.53;6.60;;;4.20;99.90;;;;;;5043955;28;20220;-66
2021/04/25 04:13:14;;;;;;;12.57;6.90;;;4.10;99.90;;;;;;5053956;28;20188;-66
2021/04/25 04:15:42;;;;;;;13.23;6.60;;;4.10;99.90;;;;;;5041806;28;20395;-65
2021/04/25 04:18:09;;;;;;;17.57;7.27;;;4.10;99.90;;;;;;5041188;28;20232;-66
2021/04/25 04:20:36;;;;;;;10.63;6.13;;;4.10;99.90;;;;;;5044132;28;20247;-66
2021/04/25 04:23:04;;;;;;;12.80;7.37;;;4.10;99.90;;;;;;5042291;28;20259;-66
2021/04/25 04:25:31;;;;;;;12.40;6.60;;;4.10;99.90;;;;;;5043382;28;20185;-66
2021/04/25 04:27:59;;;;;;;11.13;6.83;;;4.10;99.90;;;;;;5043312;28;20194;-66
2021/04/25 04:30:27;;;;;;;15.17;6.83;;;4.00;99.90;;;;;;5044869;28;20391;-66
2021/04/25 04:32:55;;;;;;;12.67;6.47;;;4.00;99.90;;;;;;5044425;28;20256;-66
2021/04/25 04:35:22;;;;;;;11.53;6.53;;;4.00;99.90;;;;;;5043550;28;20212;-66
2021/04/25 04:37:50;;;;;;;16.50;7.10;;;4.00;99.90;;;;;;5043387;28;20182;-66
2021/04/25 04:40:17;;;;;;;14.63;6.50;;;3.90;99.90;;;;;;5033044;28;20188;-66
2021/04/25 04:42:44;;;;;;;16.27;7.53;;;3.90;99.90;;;;;;5049752;28;20488;-65
2021/04/25 04:45:13;;;;;;;17.83;7.00;;;3.90;99.90;;;;;;5043003;28;20182;-66
2021/04/25 04:47:45;;;;;;;12.30;6.90;;;3.90;99.90;;;;;;5042161;28;20247;-65
2021/04/25 04:50:14;;;;;;;14.47;7.33;;;3.90;99.90;;;;;;5044244;28;20184;-66
2021/04/25 04:52:42;;;;;;;13.30;6.83;;;3.90;99.90;;;;;;5039766;28;20180;-65
2021/04/25 04:55:10;;;;;;;14.00;7.00;;;3.90;99.90;;;;;;5044733;28;20177;-66
2021/04/25 04:57:37;;;;;;;13.70;6.17;;;3.90;99.90;;;;;;5043471;28;20382;-65
2021/04/25 05:00:06;;;;;;;14.20;6.50;;;3.90;99.90;;;;;;5037697;28;20437;-66
2021/04/25 05:02:34;;;;;;;12.50;6.97;;;4.00;99.90;;;;;;5040321;28;20209;-65
2021/04/25 05:05:21;;;;;;;12.07;6.80;;;4.00;99.90;;;;;;5034554;28;20364;-66
2021/04/25 05:07:49;;;;;;;14.63;7.23;;;4.00;99.90;;;;;;5042586;28;20243;-66
2021/04/25 05:10:35;;;;;;;11.73;6.37;;;4.00;99.90;;;;;;5036236;28;20197;-65
2021/04/25 05:13:03;;;;;;;15.20;6.93;;;4.10;99.90;;;;;;5037397;28;20186;-66
2021/04/25 05:15:31;;;;;;;11.30;6.73;;;4.10;99.90;;;;;;5040834;28;20351;-65
2021/04/25 05:17:58;;;;;;;17.63;7.10;;;4.10;99.90;;;;;;5039778;28;20229;-66
2021/04/25 05:20:28;;;;;;;12.23;7.40;;;4.10;99.90;;;;;;5045462;28;20315;-66
2021/04/25 05:22:56;;;;;;;10.37;7.20;;;4.20;99.90;;;;;;5048544;28;20323;-66
2021/04/25 05:25:24;;;;;;;9.97;6.57;;;4.20;99.90;;;;;;5039803;28;20288;-68
2021/04/25 05:27:51;;;;;;;14.47;7.23;;;4.30;99.90;;;;;;5056805;28;20189;-68
2021/04/25 05:30:19;;;;;;;12.77;7.10;;;4.30;99.90;;;;;;5040219;28;20197;-68
2021/04/25 05:32:47;;;;;;;11.97;6.77;;;4.60;99.90;;;;;;5045256;28;20302;-68
2021/04/25 05:35:17;;;;;;;10.40;6.67;;;4.90;99.90;;;;;;5041647;28;20185;-67
2021/04/25 05:37:45;;;;;;;10.23;6.30;;;5.30;99.90;;;;;;5045570;28;20212;-68
2021/04/25 05:40:14;;;;;;;13.57;6.73;;;5.70;99.90;;;;;;5042083;28;20181;-68
2021/04/25 05:42:42;;;;;;;11.03;6.23;;;5.80;99.90;;;;;;5041849;28;20252;-67
2021/04/25 05:45:20;;;;;;;9.23;6.23;;;5.80;99.90;;;;;;5044641;28;20391;-68
2021/04/25 05:47:50;;;;;;;11.40;6.00;;;6.00;99.90;;;;;;5033873;28;20182;-68
2021/04/25 05:50:19;;;;;;;12.00;5.97;;;6.30;99.90;;;;;;5035843;28;20179;-68
2021/04/25 05:52:47;;;;;;;10.63;6.67;;;6.50;99.90;;;;;;5038344;28;20238;-68
2021/04/25 05:55:15;;;;;;;12.10;6.70;;;6.50;99.90;;;;;;5043094;28;20186;-68
2021/04/25 05:57:43;;;;;;;11.53;6.87;;;6.60;99.90;;;;;;5056605;28;20185;-68
2021/04/25 06:00:15;;;;;;;9.13;6.57;;;6.90;99.90;;;;;;5040102;28;20181;-68
2021/04/25 06:02:42;;;;;;;10.20;6.40;;;6.90;99.90;;;;;;5040458;28;20213;-68
2021/04/25 06:05:11;;;;;;;15.37;6.40;;;6.70;99.90;;;;;;5041076;28;20178;-68
2021/04/25 06:07:40;;;;;;;9.90;6.13;;;6.60;99.90;;;;;;5041447;28;20296;-70
2021/04/25 06:10:13;;;;;;;9.83;5.80;;;6.70;99.90;;;;;;5040530;28;20287;-68
2021/04/25 06:12:40;;;;;;;12.30;5.63;;;6.90;99.90;;;;;;5038041;28;20189;-68
2021/04/25 06:15:08;;;;;;;7.13;5.57;;;6.90;99.90;;;;;;5040415;28;20341;-68
2021/04/25 06:17:36;;;;;;;9.80;5.97;;;7.10;99.90;;;;;;5037677;28;20449;-68
2021/04/25 06:20:04;;;;;;;14.77;5.97;;;7.10;99.90;;;;;;5043763;28;20418;-68
2021/04/25 06:22:32;;;;;;;17.13;5.90;;;7.10;99.90;;;;;;5034438;28;20208;-67
2021/04/25 06:24:59;;;;;;;10.97;6.00;;;7.20;99.90;;;;;;5040609;28;20181;-68
2021/04/25 06:27:28;;;;;;;12.07;5.97;;;7.40;99.90;;;;;;5039848;28;20231;-68
2021/04/25 06:29:55;;;;;;;9.63;5.73;;;7.70;99.90;;;;;;5043648;28;20208;-68
2021/04/25 06:32:23;;;;;;;8.90;5.43;;;8.00;99.90;;;;;;5042587;28;20410;-68
2021/04/25 06:34:50;;;;;;;9.13;5.23;;;8.20;99.90;;;;;;5041270;28;20184;-69
2021/04/25 06:37:18;;;;;;;8.73;5.20;;;8.50;99.90;;;;;;5042606;28;20185;-68
2021/04/25 06:39:45;;;;;;;6.03;4.73;;;8.50;99.90;;;;;;5037977;28;20181;-67
2021/04/25 06:42:13;;;;;;;9.27;5.80;;;8.60;99.90;;;;;;5040684;28;20227;-66
2021/04/25 06:44:41;;;;;;;14.00;6.10;;;8.50;99.90;;;;;;5030643;28;20220;-66
2021/04/25 06:47:09;;;;;;;8.30;5.23;;;8.20;99.90;;;;;;5034406;28;20243;-66
2021/04/25 06:49:36;;;;;;;10.67;5.37;;;7.80;99.90;;;;;;5042594;28;20260;-66
2021/04/25 06:52:04;;;;;;;8.23;4.70;;;8.10;99.90;;;;;;5035775;28;20399;-66
2021/04/25 06:54:32;;;;;;;7.70;4.73;;;8.60;99.90;;;;;;5038427;28;20184;-66
2021/04/25 06:56:59;;;;;;;7.50;4.97;;;8.70;99.90;;;;;;5037765;28;20185;-66
2021/04/25 06:59:26;;;;;;;6.40;4.53;;;8.90;99.90;;;;;;5036826;28;20178;-67
2021/04/25 07:01:56;;;;;;;6.10;4.57;;;9.50;99.90;;;;;;5035861;28;20323;-66
2021/04/25 07:04:24;;;;;;;12.97;5.17;;;9.50;99.90;;;;;;5037564;28;20457;-66
2021/04/25 07:07:10;;;;;;;11.57;5.13;;;9.80;99.90;;;;;;5033037;28;20377;-67
2021/04/25 07:09:41;;;;;;;6.53;4.53;;;10.20;99.90;;;;;;5033122;28;20236;-66
2021/04/25 07:12:09;;;;;;;4.63;4.20;;;10.30;99.90;;;;;;5053136;28;20231;-67
2021/04/25 07:14:36;;;;;;;10.43;4.47;;;10.50;99.90;;;;;;5037813;28;20182;-66
2021/04/25 07:17:05;;;;;;;8.33;4.43;;;11.00;99.90;;;;;;5038054;28;20221;-67
2021/04/25 07:19:32;;;;;;;5.97;4.00;;;11.50;99.90;;;;;;5036112;28;20198;-66
2021/04/25 07:22:00;;;;;;;10.90;4.40;;;11.40;99.90;;;;;;5035357;28;20222;-67
2021/04/25 07:24:27;;;;;;;4.50;4.10;;;11.00;99.90;;;;;;5032647;28;20224;-67
2021/04/25 07:26:55;;;;;;;8.60;4.50;;;11.10;99.90;;;;;;5041083;28;20219;-67
2021/04/25 07:29:22;;;;;;;8.23;4.47;;;11.60;99.90;;;;;;5042868;28;20460;-66
2021/04/25 07:31:50;;;;;;;7.50;4.20;;;11.40;99.90;;;;;;5042263;28;20173;-67
2021/04/25 07:34:18;;;;;;;6.73;4.20;;;10.90;99.90;;;;;;5045257;28;20252;-66
2021/04/25 07:36:46;;;;;;;6.90;4.10;;;10.30;99.90;;;;;;5041867;28;20186;-66
2021/04/25 07:39:13;;;;;;;9.47;4.20;;;9.80;99.90;;;;;;5040913;28;20186;-67
2021/04/25 07:41:40;;;;;;;7.60;4.47;;;9.60;99.90;;;;;;5043724;28;20231;-66
2021/04/25 07:44:08;;;;;;;7.23;4.20;;;9.60;99.90;;;;;;5042427;28;20227;-66
2021/04/25 07:46:35;;;;;;;6.27;4.23;;;9.90;99.90;;;;;;5046751;28;20189;-66
2021/04/25 07:49:03;;;;;;;5.40;4.17;;;10.80;99.90;;;;;;5042732;28;20188;-67
2021/04/25 07:51:31;;;;;;;11.10;4.03;;;11.10;99.90;;;;;;5045286;28;20177;-67
2021/04/25 07:54:26;;;;;;;7.17;4.73;;;11.10;99.90;;;;;;5045828;28;20189;-66
2021/04/25 07:56:53;;;;;;;7.77;3.90;;;10.50;99.90;;;;;;5044337;28;20197;-67
2021/04/25 07:59:20;;;;;;;6.50;4.10;;;10.90;99.90;;;;;;5043911;28;20188;-67
2021/04/25 08:01:48;;;;;;;8.60;4.57;;;11.30;99.90;;;;;;5044288;28;20178;-67
2021/04/25 08:04:16;;;;;;;4.77;3.83;;;12.10;99.90;;;;;;5046079;28;20263;-67
2021/04/25 08:06:44;;;;;;;5.17;3.97;;;13.00;99.90;;;;;;5044063;28;20185;-67
2021/04/25 08:09:11;;;;;;;6.80;3.87;;;13.30;99.90;;;;;;5044049;28;20185;-67
2021/04/25 08:11:39;;;;;;;9.20;4.40;;;13.10;99.90;;;;;;5040355;28;20342;-67
2021/04/25 08:14:06;;;;;;;5.27;3.97;;;13.50;99.90;;;;;;5041710;28;20181;-67
2021/04/25 08:16:34;;;;;;;4.70;3.70;;;13.40;99.90;;;;;;5044062;28;20267;-67
2021/04/25 08:19:01;;;;;;;6.63;3.90;;;13.10;99.90;;;;;;5043294;28;20272;-67
2021/04/25 08:21:30;;;;;;;28.10;3.90;;;13.80;99.90;;;;;;5044589;28;20193;-67
2021/04/25 08:23:58;;;;;;;8.53;4.10;;;15.00;99.90;;;;;;5044075;28;20259;-67
2021/04/25 08:26:26;;;;;;;4.20;3.70;;;15.20;99.90;;;;;;5056824;28;20403;-67
2021/04/25 08:28:55;;;;;;;6.53;3.77;;;15.20;99.90;;;;;;5040044;28;20186;-67
2021/04/25 08:31:22;;;;;;;4.83;3.97;;;15.50;99.90;;;;;;5043735;28;20217;-67
2021/04/25 08:33:50;;;;;;;5.63;3.60;;;15.90;99.90;;;;;;5041775;28;20358;-67
2021/04/25 08:36:22;;;;;;;8.07;4.33;;;16.10;99.90;;;;;;5044963;28;20196;-68
2021/04/25 08:38:49;;;;;;;5.07;3.70;;;15.20;99.90;;;;;;5042798;28;20189;-67
2021/04/25 08:41:20;;;;;;;5.47;4.20;;;15.30;99.90;;;;;;5046340;28;20186;-67
2021/04/25 08:43:49;;;;;;;6.13;3.77;;;14.00;99.90;;;;;;5043011;28;20292;-67
2021/04/25 08:46:19;;;;;;;5.63;3.70;;;14.70;99.90;;;;;;5044761;28;20280;-68
2021/04/25 08:48:47;;;;;;;4.97;3.50;;;15.70;99.90;;;;;;5041848;28;20193;-68
2021/04/25 08:51:17;;;;;;;3.90;3.60;;;16.50;99.70;;;;;;5044754;28;20373;-68
2021/04/25 08:53:44;;;;;;;5.27;4.00;;;17.00;99.30;;;;;;5036289;28;20186;-67
2021/04/25 08:56:13;;;;;;;8.17;3.93;;;16.60;98.90;;;;;;5036799;28;20178;-68
2021/04/25 08:58:42;;;;;;;5.37;4.00;;;17.00;99.90;;;;;;5038804;28;20236;-68
2021/04/25 09:01:11;;;;;;;4.10;3.60;;;17.30;98.50;;;;;;5044773;28;20184;-68
2021/04/25 09:03:39;;;;;;;6.63;3.87;;;17.50;99.90;;;;;;5042846;28;20219;-68
2021/04/25 09:06:10;;;;;;;5.93;3.73;;;17.60;98.30;;;;;;5041596;28;20181;-68
2021/04/25 09:08:48;;;;;;;5.50;3.50;;;17.00;98.30;;;;;;5041758;28;20181;-67
2021/04/25 09:11:31;;;;;;;4.37;3.87;;;16.80;97.40;;;;;;5042535;28;20204;-68
2021/04/25 09:14:20;;;;;;;4.80;4.00;;;15.80;97.80;;;;;;5053209;28;20185;-68
2021/04/25 09:17:00;;;;;;;6.40;4.10;;;16.20;98.10;;;;;;5042855;28;20446;-68
2021/04/25 09:19:48;;;;;;;8.60;4.80;;;16.40;98.40;;;;;;5040976;28;20553;-68
2021/04/25 09:22:15;;;;;;;12.17;4.27;;;16.70;98.20;;;;;;5049680;28;20236;-68
2021/04/25 09:24:43;;;;;;;5.93;4.07;;;17.20;97.50;;;;;;5042964;28;20209;-68
2021/04/25 09:27:10;;;;;;;4.47;4.10;;;17.00;97.90;;;;;;5039814;28;20227;-68
2021/04/25 09:29:50;;;;;;;4.70;4.20;;;16.10;98.60;;;;;;5040460;28;20314;-68
2021/04/25 09:32:18;;;;;;;7.73;4.47;;;17.00;99.40;;;;;;5039041;28;20205;-68
2021/04/25 09:34:46;;;;;;;5.93;4.50;;;17.00;97.60;;;;;;5043657;28;20441;-67
2021/04/25 09:37:15;;;;;;;7.33;4.63;;;16.90;98.00;;;;;;5038654;28;20257;-68
2021/04/25 09:40:04;;;;;;;8.97;4.93;;;17.60;98.70;;;;;;5036891;28;20185;-68
2021/04/25 09:42:32;;;;;;;7.00;4.53;;;16.90;98.60;;;;;;5037460;28;20228;-67
2021/04/25 09:45:00;;;;;;;5.80;4.60;;;16.60;97.00;;;;;;5039595;28;20227;-67
2021/04/25 09:47:32;;;;;;;5.27;4.27;;;14.90;98.00;;;;;;5043880;28;20185;-68
2021/04/25 09:50:01;;;;;;;9.33;4.13;;;15.70;98.20;;;;;;5042351;28;20256;-68
2021/04/25 09:52:37;;;;;;;4.93;4.43;;;15.60;97.80;;;;;;5038108;28;20185;-68
2021/04/25 09:55:25;;;;;;;4.47;4.13;;;15.80;98.40;;;;;;5037759;28;20387;-67
2021/04/25 09:57:55;;;;;;;6.13;4.67;;;14.60;98.80;;;;;;5034518;28;20182;-67
2021/04/25 10:00:36;;;;;;;9.07;4.23;;;15.20;99.90;;;;;;5037427;28;20213;-68
2021/04/25 10:03:09;;;;;;;5.60;4.37;;;15.50;98.10;;;;;;5034247;28;20263;-68
2021/04/25 10:05:38;;;;;;;9.27;4.77;;;15.20;98.70;;;;;;5036212;28;20450;-67
2021/04/25 10:08:06;;;;;;;8.43;4.63;;;15.00;98.70;;;;;;5033621;28;20201;-67
2021/04/25 10:10:34;;;;;;;8.83;4.53;;;15.40;98.60;;;;;;5040608;28;20190;-68
2021/04/25 10:13:02;;;;;;;4.87;4.47;;;15.90;98.10;;;;;;5043688;28;20196;-67
2021/04/25 10:15:31;;;;;;;5.60;4.27;;;16.20;97.50;;;;;;5038516;28;20186;-67
2021/04/25 10:17:58;;;;;;;4.40;3.80;;;16.40;97.90;;;;;;5044663;28;20299;-68
2021/04/25 10:20:26;;;;;;;4.80;4.33;;;16.30;99.60;;;;;;5030230;28;20396;-68
2021/04/25 10:22:55;;;;;;;5.60;4.03;;;15.50;98.20;;;;;;5033748;28;20177;-67
2021/04/25 10:25:32;;;;;;;5.93;4.27;;;15.40;98.20;;;;;;5040700;28;20181;-68
2021/04/25 10:28:03;;;;;;;6.30;4.00;;;16.10;98.20;;;;;;5047623;28;20345;-68
2021/04/25 10:30:36;;;;;;;7.20;4.17;;;16.60;97.40;;;;;;5040975;28;20177;-67
2021/04/25 10:33:04;;;;;;;8.20;4.13;;;16.30;97.20;;;;;;5044519;28;20283;-68
2021/04/25 10:35:34;;;;;;;6.77;4.00;;;16.40;99.10;;;;;;5043956;28;20224;-68
2021/04/25 10:38:03;;;;;;;6.13;4.03;;;16.10;97.50;;;;;;5043656;28;20204;-68
2021/04/25 10:40:35;;;;;;;6.20;3.97;;;16.10;97.40;;;;;;5031577;28;20309;-67
2021/04/25 10:43:08;;;;;;;7.97;4.10;;;15.20;97.90;;;;;;5042934;28;20205;-67
2021/04/25 10:45:55;;;;;;;5.13;3.70;;;15.30;97.60;;;;;;5052580;28;20511;-68
2021/04/25 10:48:31;;;;;;;5.93;3.67;;;15.10;97.30;;;;;;5030149;28;20182;-68
2021/04/25 10:51:18;;;;;;;7.23;3.93;;;15.10;97.50;;;;;;5041149;28;20209;-68
2021/04/25 10:53:47;;;;;;;7.37;4.17;;;15.10;97.80;;;;;;5042749;28;20189;-68
2021/04/25 10:56:26;;;;;;;8.57;3.70;;;15.10;98.30;;;;;;5029445;28;20228;-67
2021/04/25 10:59:29;;;;;;;7.87;3.93;;;15.90;97.90;;;;;;5032592;28;20205;-68
2021/04/25 11:01:59;;;;;;;5.03;3.67;;;16.80;97.70;;;;;;5031774;28;20236;-69
2021/04/25 11:05:07;;;;;;;4.20;3.23;;;17.30;96.00;;;;;;5040037;28;20212;-68
2021/04/25 11:07:45;;;;;;;7.07;3.70;;;17.10;97.80;;;;;;5043054;28;20257;-67
2021/04/25 11:10:21;;;;;;;4.63;3.80;;;16.90;96.90;;;;;;5042163;28;20208;-67
2021/04/25 11:12:49;;;;;;;5.13;3.90;;;16.10;96.30;;;;;;5035621;28;20209;-68
2021/04/25 11:15:50;;;;;;;6.77;3.90;;;15.50;97.20;;;;;;5036207;28;20177;-68
2021/04/25 11:18:45;;;;;;;6.43;4.00;;;15.70;97.40;;;;;;5035767;28;20497;-68
2021/04/25 11:21:55;;;;;;;5.97;3.87;;;16.20;97.30;;;;;;5039274;28;20189;-68
2021/04/25 11:24:39;;;;;;;4.60;3.90;;;16.50;97.30;;;;;;5030161;28;20210;-68
2021/04/25 11:27:08;;;;;;;5.83;3.60;;;15.90;98.10;;;;;;5030876;28;20182;-68
2021/04/25 11:30:04;;;;;;;5.60;4.13;;;16.20;99.90;;;;;;5037558;28;20196;-68
2021/04/25 11:32:33;;;;;;;5.60;3.80;;;16.10;97.70;;;;;;5023847;28;20357;-67
2021/04/25 11:35:10;;;;;;;7.47;4.40;;;16.20;97.40;;;;;;5039453;28;20201;-68
2021/04/25 11:37:38;;;;;;;8.57;4.30;;;16.20;97.10;;;;;;5043466;28;20189;-68
2021/04/25 11:40:10;;;;;;;11.33;4.23;;;16.50;99.50;;;;;;5040757;28;20189;-68
2021/04/25 11:42:50;;;;;;;5.93;4.30;;;16.60;99.50;;;;;;5054170;28;20346;-68
2021/04/25 11:45:29;;;;;;;6.77;4.63;;;16.20;97.60;;;;;;5023184;28;20310;-67
2021/04/25 11:47:58;;;;;;;8.03;4.30;;;15.60;99.30;;;;;;5034711;28;20245;-68
2021/04/25 11:50:32;;;;;;;5.97;3.90;;;15.70;97.90;;;;;;5034725;28;20208;-68
2021/04/25 11:53:00;;;;;;;4.77;4.37;;;16.30;98.80;;;;;;5040723;28;20193;-68
2021/04/25 11:55:29;;;;;;;4.90;4.40;;;16.80;99.80;;;;;;5041272;28;20210;-68
2021/04/25 11:57:56;;;;;;;8.87;4.67;;;16.10;96.40;;;;;;5039350;28;20178;-67
2021/04/25 12:00:26;;;;;;;10.47;4.53;;;15.60;97.20;;;;;;5040758;28;20292;-68
2021/04/25 12:02:55;;;;;;;5.03;4.43;;;15.80;98.20;;;;;;5037734;28;20259;-67
2021/04/25 12:05:29;;;;;;;7.63;4.27;;;15.40;97.70;;;;;;5039373;28;20256;-68
2021/04/25 12:07:58;;;;;;;10.00;4.73;;;15.70;97.50;;;;;;5036089;28;20236;-68
2021/04/25 12:10:32;;;;;;;7.97;4.73;;;15.50;97.10;;;;;;5040087;28;20192;-67
2021/04/25 12:13:07;;;;;;;10.07;4.27;;;14.30;98.00;;;;;;5043532;28;20248;-67
2021/04/25 12:15:44;;;;;;;5.63;4.60;;;14.40;98.50;;;;;;5043571;28;20520;-67
2021/04/25 12:18:13;;;;;;;5.60;4.67;;;14.50;97.90;;;;;;5034680;28;20272;-67
2021/04/25 12:20:43;;;;;;;6.57;5.03;;;14.50;97.90;;;;;;5042567;28;20196;-67
2021/04/25 12:23:16;;;;;;;5.73;5.00;;;13.80;98.60;;;;;;5040829;28;20181;-67
2021/04/25 12:25:45;;;;;;;12.20;4.77;;;14.00;98.90;;;;;;5044400;28;20322;-65
2021/04/25 12:28:13;;;;;;;7.87;5.20;;;14.60;99.90;;;;;;5039418;28;20255;-65
2021/04/25 12:30:44;;;;;;;9.97;5.20;;;14.90;98.00;;;;;;5042363;28;20185;-65
2021/04/25 12:33:13;;;;;;;10.63;5.40;;;14.60;98.10;;;;;;5045148;28;20243;-64
2021/04/25 12:35:43;;;;;;;8.33;5.30;;;14.70;98.90;;;;;;5039773;28;20189;-65
2021/04/25 12:38:20;;;;;;;5.90;4.67;;;14.60;97.40;;;;;;5040147;28;20178;-64
2021/04/25 12:40:54;;;;;;;8.17;4.60;;;14.70;99.50;;;;;;5042630;28;20189;-64
2021/04/25 12:43:22;;;;;;;7.27;4.97;;;15.00;99.40;;;;;;5043859;28;20236;-64
2021/04/25 12:45:50;;;;;;;10.37;5.47;;;15.40;99.90;;;;;;5045172;28;20192;-64
2021/04/25 12:48:32;;;;;;;7.77;4.87;;;15.70;99.90;;;;;;5039780;28;20177;-64
2021/04/25 12:51:05;;;;;;;5.93;4.97;;;15.90;98.30;;;;;;5043732;28;20185;-64
2021/04/25 12:53:33;;;;;;;7.10;4.80;;;15.20;98.00;;;;;;5042639;28;20181;-64
2021/04/25 12:56:18;;;;;;;7.83;5.30;;;14.70;98.30;;;;;;5043218;28;20212;-64
2021/04/25 12:59:01;;;;;;;8.27;4.90;;;14.60;97.90;;;;;;5038211;28;20181;-64
2021/04/25 13:01:29;;;;;;;6.00;4.90;;;14.30;98.30;;;;;;5045691;28;20189;-64
2021/04/25 13:03:57;;;;;;;8.37;5.30;;;14.30;99.90;;;;;;5044157;28;20237;-64